sensor_id;sensor_type;location;lat;lon;timestamp;P1;durP1;ratioP1;P2;durP2;ratioP2
4323;SDS011;2175;51.018;6.994;2022-12-16T00:01:52;77.47;;;37.77;;
4323;SDS011;2175;51.018;6.994;2022-12-16T00:04:23;75.30;;;37.20;;
4323;SDS011;2175;51.018;6.994;2022-12-16T00:06:48;75.87;;;36.43;;
4323;SDS011;2175;51.018;6.994;2022-12-16T00:09:14;79.73;;;36.73;;
4323;SDS011;2175;51.018;6.994;2022-12-16T00:11:42;80.05;;;37.85;;
4323;SDS011;2175;51.018;6.994;2022-12-16T00:14:09;71.28;;;36.80;;
4323;SDS011;2175;51.018;6.994;2022-12-16T00:16:37;80.35;;;37.78;;
4323;SDS011;2175;51.018;6.994;2022-12-16T00:19:03;83.30;;;37.43;;
4323;SDS011;2175;51.018;6.994;2022-12-16T00:21:28;75.00;;;36.20;;
4323;SDS011;2175;51.018;6.994;2022-12-16T00:23:57;81.78;;;38.88;;
4323;SDS011;2175;51.018;6.994;2022-12-16T00:26:25;79.10;;;38.50;;
4323;SDS011;2175;51.018;6.994;2022-12-16T00:28:53;82.18;;;39.78;;
4323;SDS011;2175;51.018;6.994;2022-12-16T00:31:19;79.80;;;39.07;;
4323;SDS011;2175;51.018;6.994;2022-12-16T00:33:45;82.17;;;39.27;;
4323;SDS011;2175;51.018;6.994;2022-12-16T00:36:10;75.87;;;37.40;;
4323;SDS011;2175;51.018;6.994;2022-12-16T00:38:37;76.57;;;36.67;;
4323;SDS011;2175;51.018;6.994;2022-12-16T00:41:02;81.80;;;38.35;;
4323;SDS011;2175;51.018;6.994;2022-12-16T00:43:31;71.45;;;37.35;;
4323;SDS011;2175;51.018;6.994;2022-12-16T00:45:56;70.50;;;35.73;;
4323;SDS011;2175;51.018;6.994;2022-12-16T00:48:25;68.00;;;33.40;;
4323;SDS011;2175;51.018;6.994;2022-12-16T00:50:51;74.90;;;37.37;;
4323;SDS011;2175;51.018;6.994;2022-12-16T00:53:18;73.82;;;36.92;;
4323;SDS011;2175;51.018;6.994;2022-12-16T00:55:45;71.00;;;35.83;;
4323;SDS011;2175;51.018;6.994;2022-12-16T00:58:12;71.50;;;36.20;;
4323;SDS011;2175;51.018;6.994;2022-12-16T01:00:38;74.18;;;36.53;;
4323;SDS011;2175;51.018;6.994;2022-12-16T01:03:04;73.82;;;35.30;;
4323;SDS011;2175;51.018;6.994;2022-12-16T01:05:30;80.23;;;37.47;;
4323;SDS011;2175;51.018;6.994;2022-12-16T01:07:56;78.20;;;38.70;;
4323;SDS011;2175;51.018;6.994;2022-12-16T01:10:22;77.20;;;36.87;;
4323;SDS011;2175;51.018;6.994;2022-12-16T01:12:49;71.03;;;36.75;;
4323;SDS011;2175;51.018;6.994;2022-12-16T01:15:16;71.40;;;36.38;;
4323;SDS011;2175;51.018;6.994;2022-12-16T01:17:42;73.93;;;36.30;;
4323;SDS011;2175;51.018;6.994;2022-12-16T01:20:09;72.72;;;35.03;;
4323;SDS011;2175;51.018;6.994;2022-12-16T01:22:35;77.35;;;37.13;;
4323;SDS011;2175;51.018;6.994;2022-12-16T01:25:01;73.73;;;35.97;;
4323;SDS011;2175;51.018;6.994;2022-12-16T01:27:27;71.13;;;35.67;;
4323;SDS011;2175;51.018;6.994;2022-12-16T01:29:53;77.40;;;35.95;;
4323;SDS011;2175;51.018;6.994;2022-12-16T01:32:22;66.80;;;35.95;;
4323;SDS011;2175;51.018;6.994;2022-12-16T01:34:52;72.77;;;35.90;;
4323;SDS011;2175;51.018;6.994;2022-12-16T01:37:24;74.10;;;33.47;;
4323;SDS011;2175;51.018;6.994;2022-12-16T01:39:50;75.00;;;34.08;;
4323;SDS011;2175;51.018;6.994;2022-12-16T01:42:17;75.47;;;35.45;;
4323;SDS011;2175;51.018;6.994;2022-12-16T01:44:47;76.82;;;35.58;;
4323;SDS011;2175;51.018;6.994;2022-12-16T01:47:18;69.40;;;33.30;;
4323;SDS011;2175;51.018;6.994;2022-12-16T01:50:08;71.20;;;35.58;;
4323;SDS011;2175;51.018;6.994;2022-12-16T01:52:39;77.47;;;35.47;;
4323;SDS011;2175;51.018;6.994;2022-12-16T01:55:14;76.38;;;34.58;;
4323;SDS011;2175;51.018;6.994;2022-12-16T01:58:19;69.45;;;35.75;;
4323;SDS011;2175;51.018;6.994;2022-12-16T02:00:45;80.43;;;35.33;;
4323;SDS011;2175;51.018;6.994;2022-12-16T02:03:11;73.93;;;34.77;;
4323;SDS011;2175;51.018;6.994;2022-12-16T02:05:40;71.47;;;35.03;;
4323;SDS011;2175;51.018;6.994;2022-12-16T02:08:11;67.50;;;33.75;;
4323;SDS011;2175;51.018;6.994;2022-12-16T02:13:25;71.90;;;35.13;;
4323;SDS011;2175;51.018;6.994;2022-12-16T02:16:18;76.13;;;34.17;;
4323;SDS011;2175;51.018;6.994;2022-12-16T02:18:54;71.93;;;36.03;;
4323;SDS011;2175;51.018;6.994;2022-12-16T02:32:15;66.88;;;33.95;;
4323;SDS011;2175;51.018;6.994;2022-12-16T02:34:55;69.75;;;33.03;;
4323;SDS011;2175;51.018;6.994;2022-12-16T02:40:19;77.47;;;33.10;;
4323;SDS011;2175;51.018;6.994;2022-12-16T02:42:59;66.03;;;33.72;;
4323;SDS011;2175;51.018;6.994;2022-12-16T02:45:48;68.97;;;32.75;;
4323;SDS011;2175;51.018;6.994;2022-12-16T02:48:15;68.47;;;33.20;;
4323;SDS011;2175;51.018;6.994;2022-12-16T02:50:50;64.43;;;31.83;;
4323;SDS011;2175;51.018;6.994;2022-12-16T02:53:17;75.60;;;34.20;;
4323;SDS011;2175;51.018;6.994;2022-12-16T03:04:00;65.50;;;32.50;;
4323;SDS011;2175;51.018;6.994;2022-12-16T03:06:38;70.25;;;32.25;;
4323;SDS011;2175;51.018;6.994;2022-12-16T03:09:09;67.45;;;33.58;;
4323;SDS011;2175;51.018;6.994;2022-12-16T03:11:39;70.10;;;32.85;;
4323;SDS011;2175;51.018;6.994;2022-12-16T03:14:07;66.07;;;33.15;;
4323;SDS011;2175;51.018;6.994;2022-12-16T03:16:37;69.50;;;33.05;;
4323;SDS011;2175;51.018;6.994;2022-12-16T03:19:06;67.10;;;32.58;;
4323;SDS011;2175;51.018;6.994;2022-12-16T03:21:41;61.25;;;31.08;;
4323;SDS011;2175;51.018;6.994;2022-12-16T03:24:13;65.28;;;31.65;;
4323;SDS011;2175;51.018;6.994;2022-12-16T03:27:00;66.78;;;31.75;;
4323;SDS011;2175;51.018;6.994;2022-12-16T03:29:52;63.45;;;29.75;;
4323;SDS011;2175;51.018;6.994;2022-12-16T03:37:43;59.60;;;30.55;;
4323;SDS011;2175;51.018;6.994;2022-12-16T03:40:15;59.80;;;29.63;;
4323;SDS011;2175;51.018;6.994;2022-12-16T03:42:41;65.53;;;31.30;;
4323;SDS011;2175;51.018;6.994;2022-12-16T03:45:10;66.10;;;31.02;;
4323;SDS011;2175;51.018;6.994;2022-12-16T03:47:47;69.45;;;30.83;;
4323;SDS011;2175;51.018;6.994;2022-12-16T03:50:20;67.75;;;31.02;;
4323;SDS011;2175;51.018;6.994;2022-12-16T03:52:54;66.75;;;31.98;;
4323;SDS011;2175;51.018;6.994;2022-12-16T03:55:20;79.75;;;32.50;;
4323;SDS011;2175;51.018;6.994;2022-12-16T03:57:49;68.17;;;31.80;;
4323;SDS011;2175;51.018;6.994;2022-12-16T04:00:15;63.85;;;30.38;;
4323;SDS011;2175;51.018;6.994;2022-12-16T04:02:41;66.03;;;31.15;;
4323;SDS011;2175;51.018;6.994;2022-12-16T04:05:08;61.60;;;30.80;;
4323;SDS011;2175;51.018;6.994;2022-12-16T04:07:34;67.47;;;31.45;;
4323;SDS011;2175;51.018;6.994;2022-12-16T04:09:59;67.63;;;31.63;;
4323;SDS011;2175;51.018;6.994;2022-12-16T04:12:25;64.80;;;32.90;;
4323;SDS011;2175;51.018;6.994;2022-12-16T04:15:12;58.88;;;30.75;;
4323;SDS011;2175;51.018;6.994;2022-12-16T04:18:03;69.78;;;32.28;;
4323;SDS011;2175;51.018;6.994;2022-12-16T04:20:49;65.65;;;31.33;;
4323;SDS011;2175;51.018;6.994;2022-12-16T04:23:47;64.72;;;30.52;;
4323;SDS011;2175;51.018;6.994;2022-12-16T04:26:34;66.50;;;30.90;;
4323;SDS011;2175;51.018;6.994;2022-12-16T04:29:20;65.72;;;30.42;;
4323;SDS011;2175;51.018;6.994;2022-12-16T04:31:49;75.45;;;33.92;;
4323;SDS011;2175;51.018;6.994;2022-12-16T04:34:18;66.40;;;30.83;;
4323;SDS011;2175;51.018;6.994;2022-12-16T04:36:52;61.47;;;29.20;;
4323;SDS011;2175;51.018;6.994;2022-12-16T04:39:49;68.18;;;30.90;;
4323;SDS011;2175;51.018;6.994;2022-12-16T04:42:34;60.65;;;32.08;;
4323;SDS011;2175;51.018;6.994;2022-12-16T04:45:18;66.45;;;31.77;;
4323;SDS011;2175;51.018;6.994;2022-12-16T04:48:02;60.25;;;30.60;;
4323;SDS011;2175;51.018;6.994;2022-12-16T04:50:50;62.55;;;30.25;;
4323;SDS011;2175;51.018;6.994;2022-12-16T04:53:43;64.95;;;28.45;;
4323;SDS011;2175;51.018;6.994;2022-12-16T04:56:28;71.90;;;31.98;;
4323;SDS011;2175;51.018;6.994;2022-12-16T04:59:12;67.28;;;31.15;;
4323;SDS011;2175;51.018;6.994;2022-12-16T05:01:57;58.50;;;29.10;;
4323;SDS011;2175;51.018;6.994;2022-12-16T05:04:44;66.25;;;31.55;;
4323;SDS011;2175;51.018;6.994;2022-12-16T05:07:33;63.97;;;29.63;;
4323;SDS011;2175;51.018;6.994;2022-12-16T05:10:17;62.00;;;29.33;;
4323;SDS011;2175;51.018;6.994;2022-12-16T05:13:02;66.97;;;30.33;;
4323;SDS011;2175;51.018;6.994;2022-12-16T05:15:49;64.03;;;30.77;;
4323;SDS011;2175;51.018;6.994;2022-12-16T05:18:34;66.78;;;31.60;;
4323;SDS011;2175;51.018;6.994;2022-12-16T05:21:18;67.32;;;30.65;;
4323;SDS011;2175;51.018;6.994;2022-12-16T05:24:02;70.93;;;31.02;;
4323;SDS011;2175;51.018;6.994;2022-12-16T05:26:46;65.00;;;30.77;;
4323;SDS011;2175;51.018;6.994;2022-12-16T05:29:30;65.25;;;29.90;;
4323;SDS011;2175;51.018;6.994;2022-12-16T05:32:14;67.00;;;29.70;;
4323;SDS011;2175;51.018;6.994;2022-12-16T05:34:59;68.50;;;29.67;;
4323;SDS011;2175;51.018;6.994;2022-12-16T05:37:43;67.18;;;29.95;;
4323;SDS011;2175;51.018;6.994;2022-12-16T05:40:27;64.47;;;29.05;;
4323;SDS011;2175;51.018;6.994;2022-12-16T05:43:12;73.15;;;32.95;;
4323;SDS011;2175;51.018;6.994;2022-12-16T05:45:56;64.20;;;30.23;;
4323;SDS011;2175;51.018;6.994;2022-12-16T05:48:40;60.45;;;28.92;;
4323;SDS011;2175;51.018;6.994;2022-12-16T05:51:24;62.92;;;30.05;;
4323;SDS011;2175;51.018;6.994;2022-12-16T05:54:08;75.38;;;32.30;;
4323;SDS011;2175;51.018;6.994;2022-12-16T05:56:52;60.78;;;29.25;;
4323;SDS011;2175;51.018;6.994;2022-12-16T05:59:36;61.17;;;29.95;;
4323;SDS011;2175;51.018;6.994;2022-12-16T06:02:23;70.68;;;30.38;;
4323;SDS011;2175;51.018;6.994;2022-12-16T06:05:08;64.95;;;29.38;;
4323;SDS011;2175;51.018;6.994;2022-12-16T06:07:52;64.85;;;29.40;;
4323;SDS011;2175;51.018;6.994;2022-12-16T06:10:36;62.63;;;30.17;;
4323;SDS011;2175;51.018;6.994;2022-12-16T06:13:20;66.35;;;29.15;;
4323;SDS011;2175;51.018;6.994;2022-12-16T06:16:04;59.75;;;28.58;;
4323;SDS011;2175;51.018;6.994;2022-12-16T06:18:49;65.45;;;30.90;;
4323;SDS011;2175;51.018;6.994;2022-12-16T06:21:33;71.55;;;29.33;;
4323;SDS011;2175;51.018;6.994;2022-12-16T06:24:17;65.90;;;30.00;;
4323;SDS011;2175;51.018;6.994;2022-12-16T06:27:18;60.28;;;28.25;;
4323;SDS011;2175;51.018;6.994;2022-12-16T06:30:02;63.13;;;29.88;;
4323;SDS011;2175;51.018;6.994;2022-12-16T06:32:46;55.30;;;27.95;;
4323;SDS011;2175;51.018;6.994;2022-12-16T06:35:30;62.13;;;30.40;;
4323;SDS011;2175;51.018;6.994;2022-12-16T06:38:14;62.22;;;29.92;;
4323;SDS011;2175;51.018;6.994;2022-12-16T06:40:58;56.13;;;28.50;;
4323;SDS011;2175;51.018;6.994;2022-12-16T06:43:43;72.88;;;29.20;;
4323;SDS011;2175;51.018;6.994;2022-12-16T06:46:27;69.75;;;29.75;;
4323;SDS011;2175;51.018;6.994;2022-12-16T06:49:11;61.85;;;29.25;;
4323;SDS011;2175;51.018;6.994;2022-12-16T06:51:55;64.28;;;28.83;;
4323;SDS011;2175;51.018;6.994;2022-12-16T06:54:39;61.45;;;29.15;;
4323;SDS011;2175;51.018;6.994;2022-12-16T06:57:23;65.32;;;30.90;;
4323;SDS011;2175;51.018;6.994;2022-12-16T07:00:07;65.68;;;30.05;;
4323;SDS011;2175;51.018;6.994;2022-12-16T07:02:52;57.30;;;28.33;;
4323;SDS011;2175;51.018;6.994;2022-12-16T07:05:36;58.33;;;29.83;;
4323;SDS011;2175;51.018;6.994;2022-12-16T07:08:20;63.30;;;29.13;;
4323;SDS011;2175;51.018;6.994;2022-12-16T07:11:04;56.75;;;29.98;;
4323;SDS011;2175;51.018;6.994;2022-12-16T07:13:48;59.55;;;28.30;;
4323;SDS011;2175;51.018;6.994;2022-12-16T07:16:32;58.65;;;28.58;;
4323;SDS011;2175;51.018;6.994;2022-12-16T07:19:17;66.00;;;28.10;;
4323;SDS011;2175;51.018;6.994;2022-12-16T07:22:01;66.93;;;29.80;;
4323;SDS011;2175;51.018;6.994;2022-12-16T07:24:46;57.78;;;27.63;;
4323;SDS011;2175;51.018;6.994;2022-12-16T07:27:30;64.45;;;30.85;;
4323;SDS011;2175;51.018;6.994;2022-12-16T07:30:14;64.68;;;28.67;;
4323;SDS011;2175;51.018;6.994;2022-12-16T07:32:58;66.55;;;29.90;;
4323;SDS011;2175;51.018;6.994;2022-12-16T07:35:42;59.08;;;29.13;;
4323;SDS011;2175;51.018;6.994;2022-12-16T07:38:26;61.25;;;29.90;;
4323;SDS011;2175;51.018;6.994;2022-12-16T07:41:10;56.92;;;28.52;;
4323;SDS011;2175;51.018;6.994;2022-12-16T07:43:55;54.20;;;26.10;;
4323;SDS011;2175;51.018;6.994;2022-12-16T07:46:39;62.47;;;29.30;;
4323;SDS011;2175;51.018;6.994;2022-12-16T07:49:23;70.88;;;29.40;;
4323;SDS011;2175;51.018;6.994;2022-12-16T07:52:07;59.63;;;29.60;;
4323;SDS011;2175;51.018;6.994;2022-12-16T07:54:51;63.15;;;28.25;;
4323;SDS011;2175;51.018;6.994;2022-12-16T07:57:35;67.97;;;29.08;;
4323;SDS011;2175;51.018;6.994;2022-12-16T08:00:19;63.78;;;28.73;;
4323;SDS011;2175;51.018;6.994;2022-12-16T08:03:03;64.38;;;29.67;;
4323;SDS011;2175;51.018;6.994;2022-12-16T08:05:48;63.35;;;28.63;;
4323;SDS011;2175;51.018;6.994;2022-12-16T08:08:31;68.78;;;28.95;;
4323;SDS011;2175;51.018;6.994;2022-12-16T08:11:15;62.67;;;28.17;;
4323;SDS011;2175;51.018;6.994;2022-12-16T08:14:01;59.45;;;28.98;;
4323;SDS011;2175;51.018;6.994;2022-12-16T08:16:45;63.60;;;29.70;;
4323;SDS011;2175;51.018;6.994;2022-12-16T08:19:29;114.32;;;50.22;;
4323;SDS011;2175;51.018;6.994;2022-12-16T08:22:13;79.95;;;32.65;;
4323;SDS011;2175;51.018;6.994;2022-12-16T08:24:58;102.78;;;39.17;;
4323;SDS011;2175;51.018;6.994;2022-12-16T08:27:52;81.75;;;34.03;;
4323;SDS011;2175;51.018;6.994;2022-12-16T08:30:37;73.20;;;32.17;;
4323;SDS011;2175;51.018;6.994;2022-12-16T08:33:21;77.10;;;33.33;;
4323;SDS011;2175;51.018;6.994;2022-12-16T08:36:05;77.22;;;31.55;;
4323;SDS011;2175;51.018;6.994;2022-12-16T08:38:49;94.72;;;35.42;;
4323;SDS011;2175;51.018;6.994;2022-12-16T08:41:34;94.63;;;36.15;;
4323;SDS011;2175;51.018;6.994;2022-12-16T08:44:18;101.25;;;37.05;;
4323;SDS011;2175;51.018;6.994;2022-12-16T08:47:02;106.45;;;37.35;;
4323;SDS011;2175;51.018;6.994;2022-12-16T08:49:47;188.15;;;57.92;;
4323;SDS011;2175;51.018;6.994;2022-12-16T08:52:31;156.15;;;46.60;;
4323;SDS011;2175;51.018;6.994;2022-12-16T08:55:16;85.20;;;33.97;;
4323;SDS011;2175;51.018;6.994;2022-12-16T08:58:00;79.30;;;33.83;;
4323;SDS011;2175;51.018;6.994;2022-12-16T09:00:44;76.55;;;32.40;;
4323;SDS011;2175;51.018;6.994;2022-12-16T09:03:28;73.43;;;32.97;;
4323;SDS011;2175;51.018;6.994;2022-12-16T09:06:12;85.13;;;33.70;;
4323;SDS011;2175;51.018;6.994;2022-12-16T09:08:56;87.78;;;35.90;;
4323;SDS011;2175;51.018;6.994;2022-12-16T09:11:40;79.00;;;34.65;;
4323;SDS011;2175;51.018;6.994;2022-12-16T09:14:24;95.78;;;37.08;;
4323;SDS011;2175;51.018;6.994;2022-12-16T09:17:08;95.53;;;36.78;;
4323;SDS011;2175;51.018;6.994;2022-12-16T09:19:53;80.43;;;35.45;;
4323;SDS011;2175;51.018;6.994;2022-12-16T09:22:37;78.32;;;34.53;;
4323;SDS011;2175;51.018;6.994;2022-12-16T09:25:21;87.22;;;36.78;;
4323;SDS011;2175;51.018;6.994;2022-12-16T09:28:05;90.88;;;34.55;;
4323;SDS011;2175;51.018;6.994;2022-12-16T09:30:49;90.72;;;35.13;;
4323;SDS011;2175;51.018;6.994;2022-12-16T09:33:33;79.50;;;36.00;;
4323;SDS011;2175;51.018;6.994;2022-12-16T09:36:17;88.40;;;36.85;;
4323;SDS011;2175;51.018;6.994;2022-12-16T09:39:01;85.70;;;36.63;;
4323;SDS011;2175;51.018;6.994;2022-12-16T09:48:14;82.57;;;34.22;;
4323;SDS011;2175;51.018;6.994;2022-12-16T09:51:09;86.55;;;35.00;;
4323;SDS011;2175;51.018;6.994;2022-12-16T09:53:55;86.65;;;34.95;;
4323;SDS011;2175;51.018;6.994;2022-12-16T09:56:41;85.25;;;35.92;;
4323;SDS011;2175;51.018;6.994;2022-12-16T09:59:29;87.60;;;33.70;;
4323;SDS011;2175;51.018;6.994;2022-12-16T10:02:16;97.75;;;37.30;;
4323;SDS011;2175;51.018;6.994;2022-12-16T10:05:01;83.90;;;35.55;;
4323;SDS011;2175;51.018;6.994;2022-12-16T10:07:54;71.10;;;34.50;;
4323;SDS011;2175;51.018;6.994;2022-12-16T10:17:11;77.72;;;33.70;;
4323;SDS011;2175;51.018;6.994;2022-12-16T10:23:33;72.10;;;32.15;;
4323;SDS011;2175;51.018;6.994;2022-12-16T10:26:37;74.20;;;34.88;;
4323;SDS011;2175;51.018;6.994;2022-12-16T10:29:43;73.03;;;32.67;;
4323;SDS011;2175;51.018;6.994;2022-12-16T10:32:34;68.05;;;31.85;;
4323;SDS011;2175;51.018;6.994;2022-12-16T10:35:26;77.32;;;33.10;;
4323;SDS011;2175;51.018;6.994;2022-12-16T10:38:17;78.22;;;35.28;;
4323;SDS011;2175;51.018;6.994;2022-12-16T10:41:11;70.63;;;33.40;;
4323;SDS011;2175;51.018;6.994;2022-12-16T10:43:56;67.15;;;33.75;;
4323;SDS011;2175;51.018;6.994;2022-12-16T10:46:42;71.00;;;34.35;;
4323;SDS011;2175;51.018;6.994;2022-12-16T10:49:26;69.30;;;33.70;;
4323;SDS011;2175;51.018;6.994;2022-12-16T10:52:11;72.97;;;33.92;;
4323;SDS011;2175;51.018;6.994;2022-12-16T10:55:07;72.00;;;36.30;;
4323;SDS011;2175;51.018;6.994;2022-12-16T10:58:30;64.95;;;31.80;;
4323;SDS011;2175;51.018;6.994;2022-12-16T11:01:29;64.85;;;33.40;;
4323;SDS011;2175;51.018;6.994;2022-12-16T11:04:27;68.32;;;32.28;;
4323;SDS011;2175;51.018;6.994;2022-12-16T11:07:21;70.80;;;33.70;;
4323;SDS011;2175;51.018;6.994;2022-12-16T11:13:32;73.60;;;35.03;;
4323;SDS011;2175;51.018;6.994;2022-12-16T11:16:19;69.63;;;34.38;;
4323;SDS011;2175;51.018;6.994;2022-12-16T11:19:18;68.75;;;34.80;;
4323;SDS011;2175;51.018;6.994;2022-12-16T11:22:12;69.63;;;34.42;;
4323;SDS011;2175;51.018;6.994;2022-12-16T11:25:18;74.57;;;36.30;;
4323;SDS011;2175;51.018;6.994;2022-12-16T11:28:04;81.65;;;36.72;;
4323;SDS011;2175;51.018;6.994;2022-12-16T11:31:01;77.47;;;37.45;;
4323;SDS011;2175;51.018;6.994;2022-12-16T11:33:51;77.40;;;38.22;;
4323;SDS011;2175;51.018;6.994;2022-12-16T11:36:37;82.35;;;37.05;;
4323;SDS011;2175;51.018;6.994;2022-12-16T11:39:24;74.93;;;36.35;;
4323;SDS011;2175;51.018;6.994;2022-12-16T11:42:15;83.88;;;37.58;;
4323;SDS011;2175;51.018;6.994;2022-12-16T11:45:03;78.10;;;37.95;;
4323;SDS011;2175;51.018;6.994;2022-12-16T11:50:40;80.22;;;42.13;;
4323;SDS011;2175;51.018;6.994;2022-12-16T11:53:33;83.63;;;40.13;;
4323;SDS011;2175;51.018;6.994;2022-12-16T11:56:39;89.57;;;42.60;;
4323;SDS011;2175;51.018;6.994;2022-12-16T12:05:17;86.78;;;41.38;;
4323;SDS011;2175;51.018;6.994;2022-12-16T12:11:01;86.55;;;42.00;;
4323;SDS011;2175;51.018;6.994;2022-12-16T12:20:30;84.53;;;41.80;;
4323;SDS011;2175;51.018;6.994;2022-12-16T12:23:25;87.88;;;41.35;;
4323;SDS011;2175;51.018;6.994;2022-12-16T12:26:31;81.63;;;41.72;;
4323;SDS011;2175;51.018;6.994;2022-12-16T12:32:24;100.18;;;44.22;;
4323;SDS011;2175;51.018;6.994;2022-12-16T12:41:26;92.68;;;43.78;;
4323;SDS011;2175;51.018;6.994;2022-12-16T12:44:35;94.13;;;43.60;;
4323;SDS011;2175;51.018;6.994;2022-12-16T12:47:38;94.90;;;44.20;;
4323;SDS011;2175;51.018;6.994;2022-12-16T12:50:33;93.22;;;43.35;;
4323;SDS011;2175;51.018;6.994;2022-12-16T12:56:39;105.90;;;45.38;;
4323;SDS011;2175;51.018;6.994;2022-12-16T13:02:49;99.82;;;46.00;;
4323;SDS011;2175;51.018;6.994;2022-12-16T13:05:40;91.38;;;43.00;;
4323;SDS011;2175;51.018;6.994;2022-12-16T13:11:25;91.72;;;44.20;;
4323;SDS011;2175;51.018;6.994;2022-12-16T13:17:13;100.65;;;46.20;;
4323;SDS011;2175;51.018;6.994;2022-12-16T13:41:02;90.25;;;45.08;;
4323;SDS011;2175;51.018;6.994;2022-12-16T13:43:50;98.28;;;48.63;;
4323;SDS011;2175;51.018;6.994;2022-12-16T13:46:40;110.68;;;47.70;;
4323;SDS011;2175;51.018;6.994;2022-12-16T13:56:08;87.03;;;44.53;;
4323;SDS011;2175;51.018;6.994;2022-12-16T13:58:44;98.68;;;45.70;;
4323;SDS011;2175;51.018;6.994;2022-12-16T14:04:34;93.25;;;44.50;;
4323;SDS011;2175;51.018;6.994;2022-12-16T14:07:26;88.22;;;44.58;;
4323;SDS011;2175;51.018;6.994;2022-12-16T14:10:29;88.45;;;43.83;;
4323;SDS011;2175;51.018;6.994;2022-12-16T14:25:06;102.90;;;51.72;;
4323;SDS011;2175;51.018;6.994;2022-12-16T14:27:58;116.05;;;53.00;;
4323;SDS011;2175;51.018;6.994;2022-12-16T14:30:43;115.15;;;54.38;;
4323;SDS011;2175;51.018;6.994;2022-12-16T14:33:29;112.43;;;53.10;;
4323;SDS011;2175;51.018;6.994;2022-12-16T14:36:24;120.65;;;55.55;;
4323;SDS011;2175;51.018;6.994;2022-12-16T14:39:11;114.70;;;52.60;;
4323;SDS011;2175;51.018;6.994;2022-12-16T14:42:02;117.70;;;53.78;;
4323;SDS011;2175;51.018;6.994;2022-12-16T14:44:57;118.07;;;51.65;;
4323;SDS011;2175;51.018;6.994;2022-12-16T14:47:42;120.22;;;52.92;;
4323;SDS011;2175;51.018;6.994;2022-12-16T14:50:27;116.53;;;51.28;;
4323;SDS011;2175;51.018;6.994;2022-12-16T14:59:16;107.30;;;49.20;;
4323;SDS011;2175;51.018;6.994;2022-12-16T15:02:14;118.50;;;50.90;;
4323;SDS011;2175;51.018;6.994;2022-12-16T15:05:11;118.15;;;51.75;;
4323;SDS011;2175;51.018;6.994;2022-12-16T15:07:56;116.63;;;51.05;;
4323;SDS011;2175;51.018;6.994;2022-12-16T15:10:41;121.68;;;52.22;;
4323;SDS011;2175;51.018;6.994;2022-12-16T15:13:26;118.95;;;52.25;;
4323;SDS011;2175;51.018;6.994;2022-12-16T15:16:14;127.68;;;52.13;;
4323;SDS011;2175;51.018;6.994;2022-12-16T15:19:01;109.90;;;49.78;;
4323;SDS011;2175;51.018;6.994;2022-12-16T15:21:46;139.43;;;50.90;;
4323;SDS011;2175;51.018;6.994;2022-12-16T15:24:32;126.95;;;49.47;;
4323;SDS011;2175;51.018;6.994;2022-12-16T15:33:20;129.48;;;52.65;;
4323;SDS011;2175;51.018;6.994;2022-12-16T15:36:06;138.23;;;54.53;;
4323;SDS011;2175;51.018;6.994;2022-12-16T15:39:15;114.25;;;48.97;;
4323;SDS011;2175;51.018;6.994;2022-12-16T15:42:28;104.45;;;47.97;;
4323;SDS011;2175;51.018;6.994;2022-12-16T15:48:12;126.38;;;51.17;;
4323;SDS011;2175;51.018;6.994;2022-12-16T15:54:21;103.82;;;44.72;;
4323;SDS011;2175;51.018;6.994;2022-12-16T15:57:23;110.03;;;46.42;;
4323;SDS011;2175;51.018;6.994;2022-12-16T16:00:46;103.72;;;43.63;;
4323;SDS011;2175;51.018;6.994;2022-12-16T16:03:24;104.22;;;45.50;;
4323;SDS011;2175;51.018;6.994;2022-12-16T16:06:24;107.72;;;42.13;;
4323;SDS011;2175;51.018;6.994;2022-12-16T16:09:19;110.70;;;43.20;;
4323;SDS011;2175;51.018;6.994;2022-12-16T16:12:08;132.75;;;46.40;;
4323;SDS011;2175;51.018;6.994;2022-12-16T16:14:53;119.68;;;45.63;;
4323;SDS011;2175;51.018;6.994;2022-12-16T16:17:37;137.23;;;47.38;;
4323;SDS011;2175;51.018;6.994;2022-12-16T16:20:21;119.63;;;46.20;;
4323;SDS011;2175;51.018;6.994;2022-12-16T16:23:07;118.38;;;44.60;;
4323;SDS011;2175;51.018;6.994;2022-12-16T16:25:52;117.63;;;46.08;;
4323;SDS011;2175;51.018;6.994;2022-12-16T16:28:36;135.20;;;47.67;;
4323;SDS011;2175;51.018;6.994;2022-12-16T16:31:20;139.05;;;47.33;;
4323;SDS011;2175;51.018;6.994;2022-12-16T16:34:04;135.85;;;46.67;;
4323;SDS011;2175;51.018;6.994;2022-12-16T16:36:50;126.07;;;44.20;;
4323;SDS011;2175;51.018;6.994;2022-12-16T16:39:36;128.70;;;45.33;;
4323;SDS011;2175;51.018;6.994;2022-12-16T16:42:21;114.18;;;41.67;;
4323;SDS011;2175;51.018;6.994;2022-12-16T16:45:05;118.07;;;40.63;;
4323;SDS011;2175;51.018;6.994;2022-12-16T16:47:49;88.70;;;34.95;;
4323;SDS011;2175;51.018;6.994;2022-12-16T16:50:35;95.25;;;35.15;;
4323;SDS011;2175;51.018;6.994;2022-12-16T16:53:19;96.57;;;35.28;;
4323;SDS011;2175;51.018;6.994;2022-12-16T16:56:03;92.28;;;33.13;;
4323;SDS011;2175;51.018;6.994;2022-12-16T16:58:49;82.95;;;33.30;;
4323;SDS011;2175;51.018;6.994;2022-12-16T17:01:33;88.78;;;34.03;;
4323;SDS011;2175;51.018;6.994;2022-12-16T17:04:17;92.63;;;35.78;;
4323;SDS011;2175;51.018;6.994;2022-12-16T17:07:01;92.47;;;33.88;;
4323;SDS011;2175;51.018;6.994;2022-12-16T17:09:45;82.53;;;32.70;;
4323;SDS011;2175;51.018;6.994;2022-12-16T17:12:29;90.13;;;31.45;;
4323;SDS011;2175;51.018;6.994;2022-12-16T17:15:21;90.40;;;31.40;;
4323;SDS011;2175;51.018;6.994;2022-12-16T17:18:07;79.65;;;30.00;;
4323;SDS011;2175;51.018;6.994;2022-12-16T17:20:51;87.63;;;32.05;;
4323;SDS011;2175;51.018;6.994;2022-12-16T17:23:38;74.03;;;28.85;;
4323;SDS011;2175;51.018;6.994;2022-12-16T17:26:23;86.50;;;31.67;;
4323;SDS011;2175;51.018;6.994;2022-12-16T17:29:11;93.07;;;33.38;;
4323;SDS011;2175;51.018;6.994;2022-12-16T17:32:01;91.15;;;31.10;;
4323;SDS011;2175;51.018;6.994;2022-12-16T17:34:45;103.30;;;35.35;;
4323;SDS011;2175;51.018;6.994;2022-12-16T17:37:29;96.78;;;34.50;;
4323;SDS011;2175;51.018;6.994;2022-12-16T17:40:13;99.30;;;36.90;;
4323;SDS011;2175;51.018;6.994;2022-12-16T17:42:57;91.45;;;32.90;;
4323;SDS011;2175;51.018;6.994;2022-12-16T17:45:41;82.88;;;30.88;;
4323;SDS011;2175;51.018;6.994;2022-12-16T17:48:25;93.25;;;32.70;;
4323;SDS011;2175;51.018;6.994;2022-12-16T17:51:09;82.55;;;32.15;;
4323;SDS011;2175;51.018;6.994;2022-12-16T17:53:53;84.38;;;31.85;;
4323;SDS011;2175;51.018;6.994;2022-12-16T17:56:38;85.70;;;32.88;;
4323;SDS011;2175;51.018;6.994;2022-12-16T17:59:23;78.78;;;30.95;;
4323;SDS011;2175;51.018;6.994;2022-12-16T18:02:07;80.30;;;29.90;;
4323;SDS011;2175;51.018;6.994;2022-12-16T18:04:55;76.68;;;31.42;;
4323;SDS011;2175;51.018;6.994;2022-12-16T18:07:39;87.05;;;32.42;;
4323;SDS011;2175;51.018;6.994;2022-12-16T18:10:23;82.95;;;32.65;;
4323;SDS011;2175;51.018;6.994;2022-12-16T18:13:07;78.07;;;31.70;;
4323;SDS011;2175;51.018;6.994;2022-12-16T18:15:51;76.65;;;29.55;;
4323;SDS011;2175;51.018;6.994;2022-12-16T18:18:40;84.95;;;32.35;;
4323;SDS011;2175;51.018;6.994;2022-12-16T18:21:25;94.68;;;35.17;;
4323;SDS011;2175;51.018;6.994;2022-12-16T18:24:09;98.47;;;35.63;;
4323;SDS011;2175;51.018;6.994;2022-12-16T18:26:53;95.63;;;34.97;;
4323;SDS011;2175;51.018;6.994;2022-12-16T18:29:37;107.15;;;38.30;;
4323;SDS011;2175;51.018;6.994;2022-12-16T18:32:21;99.55;;;37.40;;
4323;SDS011;2175;51.018;6.994;2022-12-16T18:35:05;97.40;;;35.80;;
4323;SDS011;2175;51.018;6.994;2022-12-16T18:37:50;109.70;;;37.10;;
4323;SDS011;2175;51.018;6.994;2022-12-16T18:40:34;93.35;;;35.80;;
4323;SDS011;2175;51.018;6.994;2022-12-16T18:43:18;89.85;;;36.35;;
4323;SDS011;2175;51.018;6.994;2022-12-16T18:46:02;91.40;;;39.13;;
4323;SDS011;2175;51.018;6.994;2022-12-16T18:48:46;99.35;;;38.90;;
4323;SDS011;2175;51.018;6.994;2022-12-16T18:51:30;107.38;;;38.33;;